Time;durP1;ratioP1;P1;durP2;ratioP2;P2;SDS_P1;SDS_P2;PMS_P1;PMS_P2;Temp;Humidity;BMP_temperature;BMP_pressure;BME280_temperature;BME280_humidity;BME280_pressure;Samples;Min_cycle;Max_cycle;Signal;HPM_P1;HPM_P2
2022/01/24 00:09:04;;;;;;;10.00;6.45;;;;;;;;;;20841387;28;20056;-65
2022/01/24 00:29:27;;;;;;;10.45;6.10;;;;;;;;;;20848779;28;20055;-62
2022/01/24 00:39:37;;;;;;;8.48;5.85;;;;;;;;;;20846858;28;20045;-63
2022/01/24 00:59:49;;;;;;;8.05;5.75;;;;;;;;;;20844374;28;20053;-62
2022/01/24 01:20:16;;;;;;;8.05;5.75;;;;;;;;;;20843630;28;20050;-63
2022/01/24 01:30:22;;;;;;;6.85;5.55;;;;;;;;;;20845139;28;20490;-63
2022/01/24 02:00:49;;;;;;;8.38;5.32;;;;;;;;;;20841830;28;20099;-66
2022/01/24 02:10:51;;;;;;;8.18;5.25;;;;;;;;;;20840293;28;20092;-63
2022/01/24 02:51:49;;;;;;;9.65;5.55;;;;;;;;;;20837873;28;20046;-62
2022/01/24 03:01:52;;;;;;;6.95;5.20;;;;;;;;;;20835214;28;20053;-62
2022/01/24 03:12:07;;;;;;;7.23;5.00;;;;;;;;;;20835146;28;20132;-64
2022/01/24 03:22:11;;;;;;;6.78;5.25;;;;;;;;;;20838107;28;20056;-65
2022/01/24 03:32:14;;;;;;;9.17;5.07;;;;;;;;;;20839661;28;20049;-62
2022/01/24 03:42:18;;;;;;;7.03;5.32;;;;;;;;;;20837769;28;20050;-63
2022/01/24 03:52:20;;;;;;;8.38;4.90;;;;;;;;;;20839606;28;20466;-62
2022/01/24 04:02:23;;;;;;;9.40;5.43;;;;;;;;;;20832446;28;20052;-62
2022/01/24 04:12:26;;;;;;;8.55;6.63;;;;;;;;;;20831007;28;20060;-64
2022/01/24 04:22:33;;;;;;;6.78;4.80;;;;;;;;;;20837874;28;20569;-64
2022/01/24 04:32:35;;;;;;;7.65;4.90;;;;;;;;;;20835485;28;20052;-64
2022/01/24 04:42:51;;;;;;;8.32;4.72;;;;;;;;;;20833729;28;20060;-62
2022/01/24 04:53:04;;;;;;;7.65;5.18;;;;;;;;;;20835722;28;20054;-64
2022/01/24 05:03:06;;;;;;;6.75;4.70;;;;;;;;;;20846044;28;20052;-63
2022/01/24 05:23:35;;;;;;;9.82;5.30;;;;;;;;;;20842622;28;20067;-63
2022/01/24 05:33:37;;;;;;;9.05;5.88;;;;;;;;;;20842544;28;20076;-64
2022/01/24 05:43:39;;;;;;;14.40;6.28;;;;;;;;;;20842477;28;20041;-64
2022/01/24 05:53:41;;;;;;;10.57;6.88;;;;;;;;;;20851267;28;20053;-63
2022/01/24 06:03:43;;;;;;;10.82;6.47;;;;;;;;;;20842219;28;20051;-62
2022/01/24 06:13:58;;;;;;;8.63;5.97;;;;;;;;;;20845373;28;20057;-63
2022/01/24 06:24:19;;;;;;;9.93;6.47;;;;;;;;;;20847507;28;20536;-65
2022/01/24 06:34:33;;;;;;;12.07;6.22;;;;;;;;;;20843064;28;20049;-64
2022/01/24 06:44:36;;;;;;;9.15;5.55;;;;;;;;;;20842632;28;20053;-63
2022/01/24 06:54:41;;;;;;;10.27;6.65;;;;;;;;;;20840235;28;20049;-63
2022/01/24 07:04:44;;;;;;;11.48;6.05;;;;;;;;;;20843826;28;20041;-64
2022/01/24 07:14:48;;;;;;;12.65;5.95;;;;;;;;;;20835629;28;20144;-63
2022/01/24 07:24:50;;;;;;;11.10;6.50;;;;;;;;;;20841305;28;20054;-62
2022/01/24 07:34:52;;;;;;;8.77;6.60;;;;;;;;;;20843232;28;20107;-63
2022/01/24 07:44:54;;;;;;;13.27;6.90;;;;;;;;;;20838248;28;20552;-63
2022/01/24 07:54:57;;;;;;;31.92;19.20;;;;;;;;;;20840120;28;20563;-64
2022/01/24 08:05:00;;;;;;;15.43;9.88;;;;;;;;;;20843622;28;20409;-62
2022/01/24 08:15:05;;;;;;;14.75;9.38;;;;;;;;;;20838137;28;20053;-62
2022/01/24 08:25:07;;;;;;;;;;;;;;;;;;20831539;28;20042;-64
2022/01/24 08:35:11;;;;;;;6.72;4.03;;;;;;;;;;20843867;28;19925;-63
2022/01/24 08:55:35;;;;;;;6.57;3.90;;;;;;;;;;20844096;28;20046;-63
2022/01/24 09:05:40;;;;;;;4.93;3.13;;;;;;;;;;20843807;28;20052;-62
2022/01/24 09:15:43;;;;;;;8.30;3.30;;;;;;;;;;20842748;28;20153;-63
2022/01/24 09:25:45;;;;;;;6.35;3.25;;;;;;;;;;20843234;28;20536;-62
2022/01/24 09:35:51;;;;;;;4.72;3.17;;;;;;;;;;20823024;28;20050;-71
2022/01/24 09:45:53;;;;;;;4.25;3.40;;;;;;;;;;20799854;28;20056;-67
2022/01/24 09:55:55;;;;;;;6.47;3.47;;;;;;;;;;20792337;28;20049;-64
2022/01/24 10:05:58;;;;;;;8.60;3.55;;;;;;;;;;20838625;28;20046;-63
2022/01/24 10:26:27;;;;;;;5.75;3.22;;;;;;;;;;20837295;28;20053;-68
2022/01/24 10:36:46;;;;;;;8.05;3.03;;;;;;;;;;20837048;28;20054;-71
2022/01/24 10:46:51;;;;;;;14.15;3.10;;;;;;;;;;20838023;28;20111;-67
2022/01/24 10:56:53;;;;;;;7.93;3.30;;;;;;;;;;20832711;28;20057;-57
2022/01/24 11:06:56;;;;;;;5.65;3.53;;;;;;;;;;20834020;28;20079;-57
2022/01/24 11:16:59;;;;;;;4.90;2.90;;;;;;;;;;20829989;28;20053;-56
2022/01/24 11:27:01;;;;;;;3.97;2.78;;;;;;;;;;20828172;28;20053;-57
2022/01/24 11:37:04;;;;;;;6.65;2.70;;;;;;;;;;20831310;28;20433;-58
2022/01/24 11:47:18;;;;;;;8.52;4.03;;;;;;;;;;20831347;28;20060;-59
2022/01/24 11:57:21;;;;;;;8.95;3.63;;;;;;;;;;20829166;28;20072;-62
2022/01/24 12:07:31;;;;;;;8.00;3.03;;;;;;;;;;20826839;28;20077;-65
2022/01/24 12:17:49;;;;;;;10.80;4.03;;;;;;;;;;20827976;28;20057;-53
2022/01/24 12:28:15;;;;;;;4.97;3.25;;;;;;;;;;20828835;28;20053;-62
2022/01/24 12:38:17;;;;;;;5.10;3.33;;;;;;;;;;20827951;28;20057;-60
2022/01/24 12:48:19;;;;;;;5.20;3.20;;;;;;;;;;20827805;28;20045;-64
2022/01/24 12:58:50;;;;;;;4.15;2.80;;;;;;;;;;20828756;28;20405;-64
2022/01/24 13:09:16;;;;;;;9.30;4.10;;;;;;;;;;20817675;28;20060;-63
2022/01/24 13:29:39;;;;;;;5.30;3.17;;;;;;;;;;20508901;29;20094;-62
2022/01/24 13:39:41;;;;;;;5.45;3.15;;;;;;;;;;20533700;28;20070;-65
2022/01/24 13:49:45;;;;;;;5.00;2.55;;;;;;;;;;20644766;28;20050;-65
2022/01/24 13:59:47;;;;;;;4.30;2.55;;;;;;;;;;20838524;28;20060;-63
2022/01/24 14:09:49;;;;;;;5.13;2.70;;;;;;;;;;20838536;28;20049;-63
2022/01/24 14:19:56;;;;;;;3.47;1.50;;;;;;;;;;20836308;28;20071;-63
2022/01/24 14:30:04;;;;;;;3.85;1.65;;;;;;;;;;20836174;28;20060;-65
2022/01/24 14:40:07;;;;;;;4.25;2.50;;;;;;;;;;20835199;28;20049;-66
2022/01/24 14:50:09;;;;;;;6.28;2.13;;;;;;;;;;20834311;28;20050;-65
2022/01/24 15:00:11;;;;;;;4.63;2.00;;;;;;;;;;20833472;28;20108;-63
2022/01/24 15:10:12;;;;;;;4.28;1.98;;;;;;;;;;20834370;28;20041;-65
2022/01/24 15:30:38;;;;;;;4.18;1.90;;;;;;;;;;20831748;28;20057;-59
2022/01/24 15:40:40;;;;;;;8.23;4.10;;;;;;;;;;20830134;28;20057;-69
2022/01/24 15:50:43;;;;;;;5.45;2.38;;;;;;;;;;20833357;28;20057;-69
2022/01/24 16:00:44;;;;;;;4.45;2.50;;;;;;;;;;20839239;28;20133;-73
2022/01/24 16:10:46;;;;;;;8.35;4.25;;;;;;;;;;20830753;28;20501;-57
2022/01/24 16:30:51;;;;;;;3.42;2.20;;;;;;;;;;20828501;28;20080;-69
2022/01/24 16:41:03;;;;;;;2.70;2.28;;;;;;;;;;20828315;28;20060;-61
2022/01/24 16:51:07;;;;;;;4.15;2.22;;;;;;;;;;20832015;28;20049;-68
2022/01/24 17:01:10;;;;;;;5.50;2.83;;;;;;;;;;20842981;28;20057;-67
2022/01/24 17:11:12;;;;;;;7.15;2.53;;;;;;;;;;20847064;28;20504;-65
2022/01/24 17:21:15;;;;;;;6.95;4.68;;;;;;;;;;20842611;28;20053;-64
2022/01/24 17:31:19;;;;;;;7.40;2.80;;;;;;;;;;20841680;28;20099;-62
2022/01/24 17:41:22;;;;;;;5.32;2.50;;;;;;;;;;20841083;28;20496;-62
2022/01/24 17:51:24;;;;;;;4.38;2.38;;;;;;;;;;20839574;28;20061;-60
2022/01/24 18:01:26;;;;;;;3.97;2.33;;;;;;;;;;20836367;28;20052;-60
2022/01/24 18:11:29;;;;;;;7.18;3.83;;;;;;;;;;20837310;28;20064;-60
2022/01/24 18:21:32;;;;;;;7.40;4.07;;;;;;;;;;20838191;28;20061;-68
2022/01/24 18:31:34;;;;;;;5.75;2.90;;;;;;;;;;20844440;28;20080;-64
2022/01/24 18:41:38;;;;;;;6.53;3.05;;;;;;;;;;20900837;28;20076;-68
2022/01/24 18:51:40;;;;;;;6.20;2.95;;;;;;;;;;20840833;28;20049;-66
2022/01/24 19:01:43;;;;;;;3.55;2.40;;;;;;;;;;20834736;28;20060;-63
2022/01/24 19:11:45;;;;;;;3.38;2.38;;;;;;;;;;20833596;28;20088;-66
2022/01/24 19:32:07;;;;;;;5.95;3.10;;;;;;;;;;20831629;28;20052;-66
2022/01/24 19:42:09;;;;;;;7.93;3.03;;;;;;;;;;20830771;28;20052;-62
2022/01/24 19:52:11;;;;;;;5.28;3.35;;;;;;;;;;20829446;28;20077;-64
2022/01/24 20:02:15;;;;;;;6.63;3.97;;;;;;;;;;20751409;28;20137;-59
2022/01/24 20:12:18;;;;;;;11.90;5.68;;;;;;;;;;20806533;28;20506;-70
2022/01/24 20:22:19;;;;;;;7.47;5.20;;;;;;;;;;20788867;28;20057;-70
2022/01/24 20:32:21;;;;;;;5.30;3.92;;;;;;;;;;20829854;28;20493;-65
2022/01/24 20:42:24;;;;;;;7.45;4.55;;;;;;;;;;20843970;28;20061;-68
2022/01/24 20:52:26;;;;;;;5.65;3.60;;;;;;;;;;20844620;28;20505;-59
2022/01/24 21:02:27;;;;;;;8.98;4.38;;;;;;;;;;20844465;28;20049;-59
2022/01/24 21:12:30;;;;;;;8.52;5.95;;;;;;;;;;20843609;28;20053;-67
2022/01/24 21:22:32;;;;;;;10.23;7.47;;;;;;;;;;20843382;28;20049;-63
2022/01/24 21:32:34;;;;;;;6.60;3.85;;;;;;;;;;20842234;28;20053;-60
2022/01/24 21:42:36;;;;;;;4.47;3.38;;;;;;;;;;20839909;28;20049;-60
2022/01/24 21:52:38;;;;;;;4.05;2.60;;;;;;;;;;20840801;28;20089;-64
2022/01/24 22:02:42;;;;;;;5.60;3.72;;;;;;;;;;20839888;28;20053;-63
2022/01/24 22:12:44;;;;;;;6.55;3.22;;;;;;;;;;20836935;28;20071;-69
2022/01/24 22:33:09;;;;;;;4.20;2.80;;;;;;;;;;20838118;28;20060;-63
2022/01/24 22:43:11;;;;;;;8.52;4.75;;;;;;;;;;20837836;28;20088;-70
2022/01/24 22:53:13;;;;;;;3.40;2.58;;;;;;;;;;20837882;28;20052;-65
2022/01/24 23:03:15;;;;;;;4.93;2.83;;;;;;;;;;20835743;28;20053;-71
2022/01/24 23:17:26;;;;;;;3.47;2.42;;;;;;;;;;20834423;28;20497;-63
2022/01/24 23:23:41;;;;;;;3.77;2.73;;;;;;;;;;20833762;28;20045;-67
2022/01/24 23:43:52;;;;;;;5.53;3.45;;;;;;;;;;20832384;28;20041;-72
2022/01/24 23:53:54;;;;;;;5.65;3.83;;;;;;;;;;20832254;28;20449;-67
